createdAt,value
2019-05-19T00:01:56.995Z,3.03
2019-05-19T00:04:29.303Z,3.57
2019-05-19T00:07:01.581Z,4.90
2019-05-19T00:09:34.320Z,3.33
2019-05-19T00:12:07.013Z,3.13
2019-05-19T00:14:39.302Z,4.57
2019-05-19T00:17:11.788Z,3.10
2019-05-19T00:19:44.074Z,3.20
2019-05-19T00:22:16.358Z,4.67
2019-05-19T00:24:49.140Z,4.30
2019-05-19T00:27:22.446Z,4.20
2019-05-19T00:29:54.741Z,3.43
2019-05-19T00:32:28.271Z,3.43
2019-05-19T00:35:01.015Z,3.53
2019-05-19T00:37:33.299Z,3.27
2019-05-19T00:40:07.167Z,4.03
2019-05-19T00:42:39.778Z,3.43
2019-05-19T00:45:12.574Z,4.33
2019-05-19T00:47:44.855Z,3.40
2019-05-19T00:50:19.615Z,3.73
2019-05-19T00:52:52.339Z,3.30
2019-05-19T00:55:25.638Z,3.07
2019-05-19T00:57:59.574Z,4.10
2019-05-19T01:00:31.958Z,4.50
2019-05-19T01:03:04.262Z,3.90
2019-05-19T01:05:36.902Z,2.90
2019-05-19T01:08:09.179Z,4.07
2019-05-19T01:10:41.578Z,3.47
2019-05-19T01:13:13.855Z,3.50
2019-05-19T01:15:46.262Z,3.90
2019-05-19T01:18:18.622Z,5.17
2019-05-19T01:20:51.664Z,4.37
2019-05-19T01:23:24.740Z,4.33
2019-05-19T01:25:57.378Z,4.40
2019-05-19T01:28:29.904Z,4.17
2019-05-19T01:31:02.252Z,5.13
2019-05-19T01:33:36.293Z,4.80
2019-05-19T01:36:08.684Z,4.73
2019-05-19T01:38:41.511Z,4.67
2019-05-19T01:41:13.800Z,4.43
2019-05-19T01:43:46.750Z,4.47
2019-05-19T01:46:19.374Z,4.03
2019-05-19T01:48:52.587Z,4.47
2019-05-19T01:51:24.884Z,4.43
2019-05-19T01:53:57.162Z,5.00
2019-05-19T01:56:30.510Z,3.40
2019-05-19T01:59:03.717Z,4.03
2019-05-19T02:01:36.011Z,3.90
2019-05-19T02:04:08.313Z,4.67
2019-05-19T02:06:41.147Z,4.70
2019-05-19T02:09:14.326Z,5.00
2019-05-19T02:11:47.049Z,4.53
2019-05-19T02:14:19.334Z,4.53
2019-05-19T02:16:51.646Z,5.60
2019-05-19T02:19:24.053Z,4.00
2019-05-19T02:21:56.544Z,5.13
2019-05-19T02:24:28.692Z,4.93
2019-05-19T02:27:01.616Z,4.03
2019-05-19T02:29:33.806Z,3.97
2019-05-19T02:32:06.044Z,3.93
2019-05-19T02:34:38.639Z,5.00
2019-05-19T02:37:10.769Z,5.40
2019-05-19T02:39:42.898Z,4.77
2019-05-19T02:42:19.843Z,4.83
2019-05-19T02:44:54.243Z,5.60
2019-05-19T02:47:28.869Z,6.13
2019-05-19T02:50:04.068Z,5.97
2019-05-19T02:52:37.781Z,6.97
2019-05-19T02:55:10.234Z,7.30
2019-05-19T02:57:43.934Z,6.60
2019-05-19T03:00:16.709Z,6.17
2019-05-19T03:02:48.856Z,6.70
2019-05-19T03:05:21.452Z,7.70
2019-05-19T03:07:53.918Z,6.50
2019-05-19T03:10:26.517Z,7.60
2019-05-19T03:12:58.678Z,6.50
2019-05-19T03:15:31.306Z,7.63
2019-05-19T03:18:03.992Z,7.40
2019-05-19T03:20:36.279Z,7.13
2019-05-19T03:23:08.570Z,8.37
2019-05-19T03:25:44.187Z,7.03
2019-05-19T03:28:17.027Z,6.30
2019-05-19T03:31:23.473Z,6.07
2019-05-19T03:33:55.760Z,6.10
2019-05-19T03:36:27.998Z,8.10
2019-05-19T03:39:00.297Z,7.23
2019-05-19T03:41:32.588Z,7.07
2019-05-19T03:44:04.883Z,7.13
2019-05-19T03:46:37.489Z,6.97
2019-05-19T03:49:09.652Z,6.77
2019-05-19T03:51:41.822Z,5.17
2019-05-19T03:54:14.420Z,5.43
2019-05-19T03:56:46.548Z,6.30
2019-05-19T03:59:18.669Z,4.87
2019-05-19T04:01:51.140Z,5.17
2019-05-19T04:04:23.272Z,5.20
2019-05-19T04:06:55.408Z,5.47
2019-05-19T04:09:27.808Z,6.30
2019-05-19T04:11:59.934Z,7.43
2019-05-19T04:14:32.208Z,5.10
2019-05-19T04:17:04.915Z,5.60
2019-05-19T04:19:37.216Z,5.40
2019-05-19T04:22:10.526Z,5.57
2019-05-19T04:24:46.630Z,5.83
2019-05-19T04:27:19.158Z,5.30
2019-05-19T04:29:51.955Z,5.27
2019-05-19T04:32:24.245Z,6.17
2019-05-19T04:34:56.528Z,5.43
2019-05-19T04:37:28.816Z,4.43
2019-05-19T04:40:01.442Z,4.20
2019-05-19T04:42:33.730Z,4.73
2019-05-19T04:45:06.866Z,3.90
2019-05-19T04:47:39.156Z,5.63
2019-05-19T04:50:12.422Z,4.90
2019-05-19T04:52:44.722Z,7.00
2019-05-19T04:55:17.364Z,7.60
2019-05-19T04:57:49.653Z,8.40
2019-05-19T05:00:22.710Z,8.10
2019-05-19T05:02:55.001Z,10.47
2019-05-19T05:05:27.642Z,12.10
2019-05-19T05:07:59.930Z,11.50
2019-05-19T05:10:32.236Z,9.90
2019-05-19T05:13:04.536Z,11.73
2019-05-19T05:15:37.176Z,11.53
2019-05-19T05:18:09.915Z,11.90
2019-05-19T05:20:42.587Z,12.67
2019-05-19T05:23:15.417Z,15.03
2019-05-19T05:25:47.760Z,13.87
2019-05-19T05:28:20.683Z,12.70
2019-05-19T05:30:53.023Z,12.43
2019-05-19T05:33:25.303Z,13.97
2019-05-19T05:35:59.119Z,13.97
2019-05-19T05:38:31.388Z,13.03
2019-05-19T05:41:03.725Z,12.47
2019-05-19T05:43:36.026Z,15.60
2019-05-19T05:46:08.785Z,12.00
2019-05-19T05:48:41.076Z,15.03
2019-05-19T05:51:13.484Z,17.07
2019-05-19T05:53:46.273Z,14.33
2019-05-19T05:56:18.970Z,15.67
2019-05-19T05:58:51.285Z,16.07
2019-05-19T06:01:23.925Z,15.60
2019-05-19T06:03:56.223Z,16.27
2019-05-19T06:06:28.719Z,15.50
2019-05-19T06:09:01.025Z,15.27
2019-05-19T06:11:33.329Z,15.87
2019-05-19T06:14:05.861Z,12.77
2019-05-19T06:16:38.161Z,12.83
2019-05-19T06:19:10.919Z,13.80
2019-05-19T06:21:43.320Z,12.50
2019-05-19T06:24:16.097Z,11.17
2019-05-19T06:26:49.084Z,14.57
2019-05-19T06:29:21.886Z,14.23
2019-05-19T06:31:56.905Z,14.80
2019-05-19T06:34:29.666Z,15.23
2019-05-19T06:37:01.968Z,14.03
2019-05-19T06:39:34.255Z,14.97
2019-05-19T06:42:07.100Z,14.33
2019-05-19T06:44:39.409Z,14.80
2019-05-19T06:47:11.692Z,13.90
2019-05-19T06:49:44.669Z,12.90
2019-05-19T06:52:17.753Z,13.93
2019-05-19T06:54:50.500Z,14.33
2019-05-19T06:57:23.253Z,12.73
2019-05-19T06:59:55.897Z,13.90
2019-05-19T07:02:28.647Z,12.60
2019-05-19T07:05:01.304Z,13.43
2019-05-19T07:07:34.270Z,10.77
2019-05-19T07:10:07.352Z,11.60
2019-05-19T07:12:39.647Z,10.40
2019-05-19T07:15:12.555Z,10.77
2019-05-19T07:17:45.350Z,13.10
2019-05-19T07:20:18.546Z,14.23
2019-05-19T07:22:50.855Z,12.80
2019-05-19T07:25:23.489Z,11.97
2019-05-19T07:27:56.123Z,12.90
2019-05-19T07:30:28.467Z,12.83
2019-05-19T07:33:01.666Z,13.63
2019-05-19T07:35:35.536Z,11.67
2019-05-19T07:38:07.866Z,12.93
2019-05-19T07:40:41.085Z,12.60
2019-05-19T07:43:14.216Z,12.33
2019-05-19T07:45:46.790Z,13.23
2019-05-19T07:48:19.098Z,11.77
2019-05-19T07:50:51.722Z,13.23
2019-05-19T07:53:24.931Z,13.20
2019-05-19T07:55:57.583Z,12.63
2019-05-19T07:58:29.899Z,13.30
2019-05-19T08:01:02.196Z,12.50
2019-05-19T08:03:34.497Z,12.83
2019-05-19T08:06:07.564Z,14.57
2019-05-19T08:08:40.976Z,14.27
2019-05-19T08:11:13.274Z,14.33
2019-05-19T08:13:46.710Z,13.63
2019-05-19T08:16:20.805Z,14.33
2019-05-19T08:18:55.258Z,13.40
2019-05-19T08:21:27.939Z,13.33
2019-05-19T08:24:01.271Z,12.47
2019-05-19T08:26:34.580Z,13.10
2019-05-19T08:29:07.066Z,11.27
2019-05-19T08:31:39.823Z,12.07
2019-05-19T08:34:13.184Z,11.47
2019-05-19T08:36:46.128Z,12.43
2019-05-19T08:39:18.799Z,12.33
2019-05-19T08:41:51.543Z,12.63
2019-05-19T08:44:23.843Z,11.53
2019-05-19T08:46:56.484Z,10.90
2019-05-19T08:49:33.876Z,10.47
2019-05-19T08:52:06.259Z,11.57
2019-05-19T08:54:39.450Z,10.47
2019-05-19T08:57:11.746Z,10.40
2019-05-19T08:59:47.913Z,9.50
2019-05-19T09:02:25.593Z,9.10
2019-05-19T09:05:03.941Z,10.90
2019-05-19T09:07:41.874Z,10.07
2019-05-19T09:10:19.775Z,10.60
2019-05-19T09:12:56.126Z,9.43
2019-05-19T09:15:32.437Z,10.70
2019-05-19T09:18:09.191Z,9.37
2019-05-19T09:20:44.395Z,9.40
2019-05-19T09:23:22.881Z,9.07
2019-05-19T09:25:56.971Z,8.70
2019-05-19T09:28:31.458Z,7.57
2019-05-19T09:31:05.193Z,7.40
2019-05-19T09:33:39.756Z,7.90
2019-05-19T09:36:13.900Z,8.03
2019-05-19T09:38:47.377Z,7.93
2019-05-19T09:41:19.671Z,7.83
2019-05-19T09:43:54.324Z,6.93
2019-05-19T09:46:29.486Z,7.00
2019-05-19T09:49:22.699Z,8.20
2019-05-19T09:51:57.038Z,8.70
2019-05-19T09:54:43.788Z,7.93
2019-05-19T09:57:05.222Z,8.23
2019-05-19T09:59:37.517Z,8.47
2019-05-19T10:02:10.717Z,7.27
2019-05-19T10:04:43.501Z,7.67
2019-05-19T10:07:16.309Z,7.50
2019-05-19T10:10:11.636Z,6.80
2019-05-19T10:12:44.895Z,7.13
2019-05-19T10:15:17.396Z,9.50
2019-05-19T10:17:50.081Z,7.30
2019-05-19T10:20:34.791Z,8.00
2019-05-19T10:23:09.609Z,7.50
2019-05-19T10:25:42.434Z,7.17
2019-05-19T10:28:14.892Z,6.93
2019-05-19T10:30:47.391Z,7.97
2019-05-19T10:33:19.810Z,8.13
2019-05-19T10:35:52.553Z,8.80
2019-05-19T10:38:25.199Z,7.90
2019-05-19T10:40:58.222Z,7.57
2019-05-19T10:43:30.513Z,6.93
2019-05-19T10:46:02.822Z,6.40
2019-05-19T10:48:35.527Z,7.70
2019-05-19T10:51:08.085Z,6.73
2019-05-19T10:53:40.827Z,6.70
2019-05-19T10:56:13.517Z,6.67
2019-05-19T10:58:46.264Z,6.07
2019-05-19T11:01:18.620Z,5.40
2019-05-19T11:03:51.383Z,6.90
2019-05-19T11:06:24.008Z,5.73
2019-05-19T11:08:57.969Z,5.60
2019-05-19T11:11:30.625Z,5.63
2019-05-19T11:14:03.815Z,5.27
2019-05-19T11:16:36.562Z,5.90
2019-05-19T11:19:08.837Z,6.10
2019-05-19T11:21:41.126Z,5.40
2019-05-19T11:24:14.370Z,4.27
2019-05-19T11:26:47.146Z,4.17
2019-05-19T11:29:19.893Z,5.40
2019-05-19T11:31:53.096Z,4.33
2019-05-19T11:34:25.817Z,4.13
2019-05-19T11:36:58.611Z,5.20
2019-05-19T11:39:30.905Z,6.03
2019-05-19T11:42:03.671Z,5.57
2019-05-19T11:44:35.940Z,4.83
2019-05-19T11:47:09.162Z,4.00
2019-05-19T11:49:41.773Z,4.53
2019-05-19T11:52:14.974Z,4.60
2019-05-19T11:54:47.594Z,4.27
2019-05-19T11:57:20.677Z,4.83
2019-05-19T11:59:53.120Z,5.07
2019-05-19T12:02:25.445Z,4.23
2019-05-19T12:04:57.747Z,5.00
2019-05-19T12:07:31.013Z,4.20
2019-05-19T12:10:03.696Z,4.63
2019-05-19T12:12:35.996Z,4.90
2019-05-19T12:15:09.297Z,5.23
2019-05-19T12:17:41.678Z,4.87
2019-05-19T12:20:14.382Z,4.00
2019-05-19T12:22:46.661Z,3.50
2019-05-19T12:25:19.045Z,3.07
2019-05-19T12:27:51.338Z,3.63
2019-05-19T12:30:23.948Z,3.80
2019-05-19T12:32:59.200Z,3.20
2019-05-19T12:35:31.123Z,3.40
2019-05-19T12:38:03.876Z,2.57
2019-05-19T12:40:36.617Z,2.70
2019-05-19T12:43:09.691Z,3.00
2019-05-19T12:45:42.099Z,2.97
2019-05-19T12:48:15.386Z,3.40
2019-05-19T12:50:47.777Z,2.77
2019-05-19T12:53:21.562Z,5.30
2019-05-19T12:55:53.843Z,5.00
2019-05-19T12:58:26.458Z,5.53
2019-05-19T13:00:59.205Z,5.53
2019-05-19T13:03:31.826Z,5.53
2019-05-19T13:06:04.687Z,5.50
2019-05-19T13:08:37.361Z,4.40
2019-05-19T13:11:10.070Z,4.17
2019-05-19T13:13:42.693Z,3.33
2019-05-19T13:16:15.773Z,3.03
2019-05-19T13:18:48.492Z,3.87
2019-05-19T13:21:21.119Z,4.57
2019-05-19T13:23:55.725Z,4.40
2019-05-19T13:26:27.644Z,3.53
2019-05-19T13:29:00.265Z,4.60
2019-05-19T13:31:33.034Z,4.33
2019-05-19T13:34:05.542Z,3.40
2019-05-19T13:36:40.311Z,4.30
2019-05-19T13:39:12.265Z,4.30
2019-05-19T13:41:44.550Z,4.43
2019-05-19T13:44:17.172Z,4.43
2019-05-19T13:46:49.926Z,4.63
2019-05-19T13:49:23.125Z,4.27
2019-05-19T13:51:56.110Z,4.57
2019-05-19T13:54:29.162Z,3.40
2019-05-19T13:57:11.877Z,3.50
2019-05-19T13:59:35.360Z,4.13
2019-05-19T14:02:07.642Z,3.87
2019-05-19T14:04:40.400Z,4.13
2019-05-19T14:07:13.127Z,4.40
2019-05-19T14:09:45.503Z,3.13
2019-05-19T14:12:18.241Z,4.67
2019-05-19T14:14:50.870Z,4.83
2019-05-19T14:17:24.205Z,3.80
2019-05-19T14:19:56.855Z,4.00
2019-05-19T14:22:29.481Z,4.43
2019-05-19T14:25:01.785Z,3.70
2019-05-19T14:27:34.499Z,3.73
2019-05-19T14:30:13.328Z,4.77
2019-05-19T14:32:46.065Z,4.43
2019-05-19T14:35:18.605Z,4.10
2019-05-19T14:37:51.351Z,3.97
2019-05-19T14:40:24.183Z,4.20
2019-05-19T14:43:02.290Z,4.60
2019-05-19T14:45:34.945Z,4.30
2019-05-19T14:48:07.788Z,4.90
2019-05-19T14:50:40.949Z,4.37
2019-05-19T14:53:13.380Z,3.90
2019-05-19T14:55:46.587Z,4.50
2019-05-19T14:58:19.286Z,4.43
2019-05-19T15:00:54.729Z,5.30
2019-05-19T15:03:27.469Z,4.77
2019-05-19T15:05:59.850Z,5.33
2019-05-19T15:08:32.737Z,4.77
2019-05-19T15:11:05.137Z,4.93
2019-05-19T15:13:37.863Z,4.50
2019-05-19T15:16:10.948Z,4.87
2019-05-19T15:18:44.182Z,3.80
2019-05-19T15:21:17.590Z,3.50
2019-05-19T15:23:51.881Z,3.63
2019-05-19T15:26:29.182Z,5.33
2019-05-19T15:29:01.815Z,4.87
2019-05-19T15:31:34.432Z,4.80
2019-05-19T15:34:07.843Z,4.20
2019-05-19T15:36:40.510Z,5.23
2019-05-19T15:39:14.623Z,4.20
2019-05-19T15:41:47.720Z,4.80
2019-05-19T15:44:20.173Z,5.03
2019-05-19T15:46:52.753Z,4.50
2019-05-19T15:49:25.501Z,4.03
2019-05-19T15:52:03.286Z,3.97
2019-05-19T15:54:32.153Z,3.53
2019-05-19T15:57:04.442Z,4.97
2019-05-19T15:59:37.061Z,4.10
2019-05-19T16:02:09.469Z,4.40
2019-05-19T16:04:42.097Z,4.00
2019-05-19T16:07:14.721Z,4.10
2019-05-19T16:09:47.466Z,3.57
2019-05-19T16:12:20.198Z,3.30
2019-05-19T16:14:52.502Z,3.50
2019-05-19T16:17:24.798Z,3.90
2019-05-19T16:19:57.547Z,2.90
2019-05-19T16:22:29.851Z,2.80
2019-05-19T16:25:02.471Z,4.30
2019-05-19T16:27:34.772Z,3.97
2019-05-19T16:30:07.479Z,3.50
2019-05-19T16:32:39.894Z,3.23
2019-05-19T16:35:12.639Z,2.90
2019-05-19T16:37:45.065Z,2.77
2019-05-19T16:40:19.832Z,3.03
2019-05-19T16:42:52.631Z,2.60
2019-05-19T16:45:26.159Z,2.90
2019-05-19T16:47:58.887Z,2.33
2019-05-19T16:50:31.520Z,2.60
2019-05-19T16:53:04.940Z,2.00
2019-05-19T16:55:38.506Z,2.33
2019-05-19T16:58:20.635Z,2.43
2019-05-19T17:00:45.679Z,2.77
2019-05-19T17:03:18.478Z,2.50
2019-05-19T17:05:50.968Z,2.70
2019-05-19T17:08:23.213Z,2.57
2019-05-19T17:10:57.526Z,2.97
2019-05-19T17:13:30.227Z,2.40
2019-05-19T17:16:02.944Z,5.27
2019-05-19T17:18:35.205Z,3.53
2019-05-19T17:21:09.098Z,3.50
2019-05-19T17:23:41.773Z,5.03
2019-05-19T17:26:14.428Z,4.17
2019-05-19T17:29:00.114Z,4.67
2019-05-19T17:31:25.750Z,4.83
2019-05-19T17:33:57.996Z,4.50
2019-05-19T17:36:30.785Z,4.10
2019-05-19T17:39:04.565Z,4.17
2019-05-19T17:41:37.350Z,4.40
2019-05-19T17:44:10.063Z,4.93
2019-05-19T17:46:42.347Z,5.77
2019-05-19T17:49:14.698Z,6.40
2019-05-19T17:51:47.548Z,4.90
2019-05-19T17:54:20.279Z,5.33
2019-05-19T17:56:55.299Z,4.63
2019-05-19T17:59:28.223Z,3.70
2019-05-19T18:02:00.925Z,3.57
2019-05-19T18:04:33.633Z,4.33
2019-05-19T18:07:05.902Z,5.53
2019-05-19T18:09:38.707Z,5.23
2019-05-19T18:12:12.137Z,5.37
2019-05-19T18:14:44.844Z,4.47
2019-05-19T18:17:17.573Z,4.30
2019-05-19T18:19:50.311Z,4.50
2019-05-19T18:22:22.653Z,4.60
2019-05-19T18:24:54.990Z,4.90
2019-05-19T18:27:27.484Z,5.00
2019-05-19T18:30:00.503Z,5.87
2019-05-19T18:32:33.131Z,5.07
2019-05-19T18:35:06.026Z,6.00
2019-05-19T18:37:38.769Z,6.80
2019-05-19T18:40:11.757Z,5.30
2019-05-19T18:42:44.017Z,6.30
2019-05-19T18:45:17.347Z,7.20
2019-05-19T18:47:49.973Z,6.30
2019-05-19T18:50:22.874Z,5.83
2019-05-19T18:52:55.166Z,6.60
2019-05-19T18:55:27.406Z,5.63
2019-05-19T18:57:59.692Z,6.90
2019-05-19T19:00:38.087Z,6.03
2019-05-19T19:03:10.598Z,6.37
2019-05-19T19:05:44.236Z,7.30
2019-05-19T19:08:16.535Z,6.70
2019-05-19T19:10:54.245Z,5.93
2019-05-19T19:13:27.767Z,4.90
2019-05-19T19:16:00.014Z,5.53
2019-05-19T19:18:32.738Z,4.60
2019-05-19T19:21:08.129Z,5.47
2019-05-19T19:23:40.833Z,4.80
2019-05-19T19:26:13.214Z,4.67
2019-05-19T19:28:48.859Z,4.40
2019-05-19T19:31:21.907Z,6.57
2019-05-19T19:33:55.327Z,6.33
2019-05-19T19:36:28.008Z,4.53
2019-05-19T19:39:01.040Z,4.93
2019-05-19T19:41:34.863Z,8.37
2019-05-19T19:44:08.827Z,6.00
2019-05-19T19:46:41.481Z,8.33
2019-05-19T19:49:15.333Z,6.87
2019-05-19T19:51:48.484Z,6.97
2019-05-19T19:54:21.243Z,7.70
2019-05-19T19:56:54.992Z,8.17
2019-05-19T19:59:27.722Z,7.40
2019-05-19T20:02:00.521Z,7.03
2019-05-19T20:04:33.270Z,8.53
2019-05-19T20:07:06.432Z,8.97
2019-05-19T20:09:39.063Z,8.33
2019-05-19T20:12:11.760Z,7.20
2019-05-19T20:14:44.035Z,6.13
2019-05-19T20:17:16.284Z,5.43
2019-05-19T20:19:48.556Z,6.23
2019-05-19T20:22:21.671Z,6.57
2019-05-19T20:24:54.397Z,6.40
2019-05-19T20:27:27.127Z,5.83
2019-05-19T20:29:59.392Z,5.00
2019-05-19T20:32:31.646Z,5.00
2019-05-19T20:35:03.999Z,4.90
2019-05-19T20:37:36.236Z,6.37
2019-05-19T20:40:10.611Z,5.23
2019-05-19T20:42:42.856Z,7.77
2019-05-19T20:45:15.288Z,6.10
2019-05-19T20:47:47.583Z,7.13
2019-05-19T20:50:20.451Z,7.03
2019-05-19T20:52:53.038Z,5.80
2019-05-19T20:55:25.339Z,5.73
2019-05-19T20:57:57.579Z,4.77
2019-05-19T21:00:30.210Z,5.13
2019-05-19T21:03:02.780Z,4.87
2019-05-19T21:05:36.084Z,5.60
2019-05-19T21:08:08.653Z,5.50
2019-05-19T21:10:40.948Z,5.40
2019-05-19T21:13:13.521Z,5.47
2019-05-19T21:15:46.225Z,5.07
2019-05-19T21:18:19.374Z,5.50
2019-05-19T21:20:51.666Z,7.53
2019-05-19T21:23:23.912Z,8.37
2019-05-19T21:25:58.367Z,6.90
2019-05-19T21:28:37.034Z,6.23
2019-05-19T21:31:12.825Z,5.30
2019-05-19T21:33:46.080Z,5.30
2019-05-19T21:36:18.758Z,4.43
2019-05-19T21:38:51.079Z,5.03
2019-05-19T21:41:23.823Z,5.00
2019-05-19T21:43:56.935Z,4.50
2019-05-19T21:46:30.608Z,4.10
2019-05-19T21:49:03.341Z,3.73
2019-05-19T21:51:35.644Z,4.60
2019-05-19T21:54:08.366Z,5.40
2019-05-19T21:56:41.003Z,3.90
2019-05-19T21:59:13.286Z,3.80
2019-05-19T22:01:46.113Z,4.13
2019-05-19T22:04:18.409Z,3.63
2019-05-19T22:06:56.621Z,7.10
2019-05-19T22:09:28.902Z,4.80
2019-05-19T22:12:02.332Z,4.33
2019-05-19T22:14:35.006Z,4.63
2019-05-19T22:17:07.843Z,5.40
2019-05-19T22:19:40.583Z,6.90
2019-05-19T22:22:12.867Z,5.07
2019-05-19T22:24:45.156Z,4.20
2019-05-19T22:27:18.237Z,3.67
2019-05-19T22:29:50.518Z,5.20
2019-05-19T22:32:22.813Z,5.20
2019-05-19T22:34:55.921Z,5.47
2019-05-19T22:37:28.539Z,4.63
2019-05-19T22:40:01.291Z,4.80
2019-05-19T22:42:33.582Z,5.17
2019-05-19T22:45:06.164Z,4.73
2019-05-19T22:47:38.814Z,4.93
2019-05-19T22:50:11.405Z,4.97
2019-05-19T22:52:45.303Z,5.10
2019-05-19T22:55:17.993Z,7.00
2019-05-19T22:57:50.621Z,5.90
2019-05-19T23:00:23.815Z,5.23
2019-05-19T23:02:56.136Z,7.53
2019-05-19T23:05:28.425Z,6.07
2019-05-19T23:08:01.517Z,6.43
2019-05-19T23:10:34.580Z,5.77
2019-05-19T23:13:08.393Z,5.93
2019-05-19T23:15:41.426Z,4.97
2019-05-19T23:18:14.149Z,6.37
2019-05-19T23:20:47.448Z,5.50
2019-05-19T23:23:21.006Z,6.50
2019-05-19T23:25:53.284Z,6.53
2019-05-19T23:28:26.370Z,6.00
2019-05-19T23:30:58.652Z,6.37
2019-05-19T23:33:31.274Z,6.13
2019-05-19T23:36:04.157Z,5.47
2019-05-19T23:38:37.371Z,5.23
2019-05-19T23:41:10.170Z,5.87
2019-05-19T23:43:42.901Z,5.13
2019-05-19T23:46:15.520Z,6.93
2019-05-19T23:48:48.263Z,5.80
2019-05-19T23:51:20.882Z,6.50
2019-05-19T23:53:53.176Z,5.40
2019-05-19T23:56:25.568Z,5.03
2019-05-19T23:58:58.187Z,6.37
